Terminal Aerodrome Forecast
Issued by NWS

Home | Current Version | Previous Version | Text Only | Print | Product List | Glossary On
Versions: 1 2 3 4 5 6 7 8 9 10 11 12 13 14
000
FTUS43 KJKL 170400 AAB
TAFSME
TAF AMD
KSME 170411Z 1704/1724 26006KT 6SM -DZ OVC015
     FM170500 27004KT 6SM -DZ OVC008
     FM171000 28004KT 6SM -DZ OVC020
     FM171900 28004KT P6SM BKN030
     FM172200 VRB03KT P6SM BKN030=

USA.gov is the U.S. government's official web portal to all federal, state and local government web resources and services.